Charlevoix, MI

11:54 PM EDT on September 15, 2014 (GMT -0400)
1.5 W Ironton | Change Station
CLOSE
Current Station
Personal Weather Station
Location: Charlevoix, MI
Elevation: 750 ft
Nearby Weather Stations

Elev 750 ft 45.26 °N, 85.22 °W | Updated 4 seconds ago

Overcast
Overcast
52.2 °F
Feels Like 52.2 °F
N
0.0
Wind Variable Wind from West
Gusts 4.0 mph

Today
High -- | Low -- °F
--% Chance of Precip.
Yesterday
High -- | Low -- °F
Precip. -- in
7:19 AM 7:52 PM
Waning Gibbous, 49% visible
Pressure 30.14 in
Visibility 10.0 miles
Clouds Scattered Clouds 3200 ft
Scattered Clouds 6000 ft
Overcast 7000 ft
Dew Point 47 °F
Humidity 83%
Rainfall 0.00 in
Snow Depth Not available.
UV 0 out of 12
Pollen 2.30 out of 12
Ozone Good
PM2.5 Good
Flu Activity Not available.
METAR KCVX 160334Z AUTO 32007KT 10SM SCT032 SCT060 OVC070 14/08 A3014 RMK AO2 T01380079

More Conditions Fewer Conditions

Pressure 30.14 in
Visibility 10.0 miles
Clouds Scattered Clouds 3200 ft
Scattered Clouds 6000 ft
Overcast 7000 ft
Dew Point 47 °F
Humidity 83%
Rainfall 0.00 in
Snow Depth Not available.
UV 0 out of 12
Pollen 2.30 out of 12
Ozone Good
PM2.5 Good
Flu Activity Not available.
METAR KCVX 160334Z AUTO 32007KT 10SM SCT032 SCT060 OVC070 14/08 A3014 RMK AO2 T01380079

More Conditions Fewer Conditions

Nowcast | as of 11:00 PM EDT on September 15, 2014

At 12 am...partly cloudy. Temperature 51. Northwest winds 8 mph. At 2 am...partly cloudy. Temperature 50. Northwest winds 8 mph. At 4 am...partly cloudy. Temperature 49. Northwest winds 7 mph. At 6 am...mostly clear. Temperature 49. West winds 8 mph.

×

10-Day Weather Forecast

Almanac

Astronomy

Sep. 15, 2014 Rise Set
Actual Time 7:19 AM EDT 7:52 PM EDT
Civil Twilight 6:49 AM EDT 8:21 PM EDT
Nautical Twilight 6:14 AM EDT 8:56 PM EDT
Astronomical Twilight 5:38 AM EDT 9:32 PM EDT
Moon No Moon Rise 2:35 PM EDT (9/15)
Length of Visible Light 13h 31m
Length of Day
12h 32m
Tomorrow will be 3m 7s shorter.
Waning Gibbous, 49% of the Moon is Illuminated
Today
Waning Gibbous
Sep 24
New
Oct 1
First Quarter
Oct 8
Full
Oct 15
Last Quarter

Today's Extremes

State Highs State Lows

Community

WunderPhotos

Upload Photos

1,753,693 photos uploaded!

Nearby

Air Quality

  Air Quality AQ Index Pollutant
Yesterday Good
OZONE
Yesterday Good
PM2.5
Current Good
PM2.5
Current Good
OZONE
Monday Good
OZONE
Monday Good
PM2.5
Tuesday Good
OZONE
Tuesday Good
PM2.5
Wednesday Good
OZONE
Wednesday Good
PM2.5
Thursday Good
OZONE
Thursday Good
PM2.5
Friday Good
OZONE
Friday Good
PM2.5
Saturday Good
OZONE
Saturday Good
PM2.5

Snow Depth

Station Depth Elevation
No new snow has been reported.

Earthquake Activity

City Distance Mag. Time & Date
No recent earthquake activity has been reported nearby.
Minimum magnitude displayed is 2.5.

Coastal Water Temperatures

Place Temperature
Mackinaw City, MI 62.1 °F
Port Inland, MI 61.0 °F

Nearby Weather Stations